Terminal Aerodrome Forecast
Issued by NWS Twin Cities, MN

Home | Current Version | Previous Version | Graphics & Text | Print | Product List | Glossary On
Versions: 1 2 3 4 5 6 7 8 9 10 11 12 13 14 15 16 17 18 19 20 21 22 23 24 25 26 27 28 29
000
FTUS43 KMPX 261323 AAA
TAFMSP
TAF AMD
KMSP 261323Z 2613/2718 30011G19KT P6SM OVC035
      TEMPO 2613/2615 OVC030
     FM261500 32012G20KT P6SM BKN040
     FM270000 34008KT P6SM SKC
     FM270900 02003KT P6SM SKC=

USA.gov is the U.S. government's official web portal to all federal, state and local government web resources and services.